Time;durP1;ratioP1;P1;durP2;ratioP2;P2;SDS_P1;SDS_P2;PMS_P1;PMS_P2;Temp;Humidity;BMP_temperature;BMP_pressure;BME280_temperature;BME280_humidity;BME280_pressure;Samples;Min_cycle;Max_cycle;Signal;HPM_P1;HPM_P2
2023/01/15 00:01:35;;;;;;;1.40;1.30;;;8.20;99.90;;;;;;4968080;28;20464;-51
2023/01/15 00:04:04;;;;;;;1.07;1.07;;;8.20;99.90;;;;;;4967435;28;20472;-52
2023/01/15 00:06:32;;;;;;;1.40;1.17;;;8.30;99.90;;;;;;4970508;28;20492;-53
2023/01/15 00:08:59;;;;;;;3.50;1.17;;;8.30;99.90;;;;;;4963345;28;20531;-53
2023/01/15 00:11:25;;;;;;;0.90;0.90;;;8.30;99.90;;;;;;4971381;28;20485;-52
2023/01/15 00:13:52;;;;;;;3.37;1.00;;;8.40;99.90;;;;;;4967092;28;20503;-53
2023/01/15 00:16:21;;;;;;;1.83;0.83;;;8.40;99.90;;;;;;4962618;28;20566;-52
2023/01/15 00:18:51;;;;;;;0.90;0.90;;;8.40;99.90;;;;;;4967941;28;20498;-52
2023/01/15 00:21:19;;;;;;;1.30;1.20;;;8.40;99.90;;;;;;4967827;28;20473;-52
2023/01/15 00:29:16;;;;;;;1.13;0.70;;;8.50;99.90;;;;;;4971196;28;20595;-53
2023/01/15 00:31:50;;;;;;;1.03;1.03;;;8.50;99.90;;;;;;4967288;28;20494;-52
2023/01/15 00:34:18;;;;;;;2.20;1.90;;;8.50;99.90;;;;;;4965058;28;20467;-54
2023/01/15 00:36:45;;;;;;;0.93;0.80;;;8.60;99.90;;;;;;4990895;23;20527;-53
2023/01/15 00:39:11;;;;;;;0.90;0.90;;;8.60;99.90;;;;;;4972558;28;21271;-51
2023/01/15 00:41:38;;;;;;;1.20;0.87;;;8.60;99.90;;;;;;4972544;28;20795;-52
2023/01/15 00:44:05;;;;;;;0.70;0.70;;;8.60;99.90;;;;;;4971431;28;20468;-52
2023/01/15 00:46:31;;;;;;;1.23;0.80;;;8.70;99.90;;;;;;4968191;28;20517;-51
2023/01/15 00:48:58;;;;;;;0.83;0.80;;;8.70;99.90;;;;;;4973753;28;20510;-51
2023/01/15 00:51:26;;;;;;;0.87;0.87;;;8.70;99.90;;;;;;4976783;28;20548;-51
2023/01/15 00:53:52;;;;;;;1.03;1.03;;;8.70;99.90;;;;;;4972550;28;20492;-53
2023/01/15 00:56:19;;;;;;;1.67;1.03;;;8.80;99.90;;;;;;4976213;28;21012;-52
2023/01/15 00:58:46;;;;;;;1.00;0.83;;;8.90;99.90;;;;;;4970895;28;20460;-52
2023/01/15 01:01:13;;;;;;;0.73;0.60;;;8.80;99.90;;;;;;4974616;28;20466;-52
2023/01/15 01:03:40;;;;;;;1.20;1.20;;;8.80;99.90;;;;;;4970053;28;20554;-51
2023/01/15 01:06:07;;;;;;;1.33;1.00;;;8.80;99.90;;;;;;4968048;28;21070;-51
2023/01/15 01:08:35;;;;;;;0.90;0.90;;;8.90;99.90;;;;;;4969231;28;20810;-52
2023/01/15 01:11:03;;;;;;;1.47;1.00;;;8.90;99.90;;;;;;4971792;28;20471;-52
2023/01/15 01:13:29;;;;;;;1.40;1.27;;;8.90;99.90;;;;;;4980225;28;20949;-52
2023/01/15 01:15:56;;;;;;;1.03;0.93;;;8.90;99.90;;;;;;4974977;28;20492;-51
2023/01/15 01:18:22;;;;;;;0.80;0.80;;;8.90;99.90;;;;;;4971925;28;20587;-54
2023/01/15 01:20:49;;;;;;;1.00;1.00;;;8.90;99.90;;;;;;4973062;28;20566;-52
2023/01/15 01:23:16;;;;;;;1.10;1.10;;;8.90;99.90;;;;;;4975439;28;20519;-51
2023/01/15 01:25:43;;;;;;;0.70;0.70;;;8.90;99.90;;;;;;4975971;28;20519;-53
2023/01/15 01:28:10;;;;;;;1.23;0.80;;;8.90;99.90;;;;;;4976346;28;20497;-52
2023/01/15 01:30:37;;;;;;;1.03;0.93;;;8.80;99.90;;;;;;4976129;28;20485;-51
2023/01/15 01:33:04;;;;;;;0.83;0.83;;;8.80;99.90;;;;;;4975341;28;20465;-51
2023/01/15 01:35:31;;;;;;;2.10;0.80;;;8.70;99.90;;;;;;4974550;28;20515;-52
2023/01/15 01:37:58;;;;;;;0.87;0.80;;;8.70;99.90;;;;;;4974721;28;20599;-53
2023/01/15 01:40:24;;;;;;;0.80;0.80;;;8.80;99.90;;;;;;4975956;28;20527;-52
2023/01/15 01:42:53;;;;;;;0.80;0.73;;;8.80;99.90;;;;;;4976297;28;21024;-52
2023/01/15 01:45:23;;;;;;;0.90;0.90;;;8.80;99.90;;;;;;4975626;28;20493;-53
2023/01/15 01:47:51;;;;;;;0.73;0.73;;;8.90;99.90;;;;;;4979980;28;20580;-51
2023/01/15 01:50:18;;;;;;;0.53;0.53;;;8.90;99.90;;;;;;4975840;28;21143;-51
2023/01/15 01:52:48;;;;;;;0.97;0.97;;;9.00;99.90;;;;;;4974453;28;20523;-52
2023/01/15 01:55:17;;;;;;;0.87;0.77;;;8.90;99.90;;;;;;4975661;28;20539;-51
2023/01/15 01:57:46;;;;;;;1.57;1.00;;;9.00;99.90;;;;;;4974362;28;20543;-52
2023/01/15 02:00:15;;;;;;;1.53;0.87;;;8.80;99.90;;;;;;4975778;28;20444;-53
2023/01/15 02:02:46;;;;;;;0.77;0.77;;;8.80;99.90;;;;;;4975201;28;20956;-52
2023/01/15 02:05:15;;;;;;;1.00;0.80;;;8.70;99.90;;;;;;4975056;28;20520;-51
2023/01/15 02:07:42;;;;;;;0.77;0.77;;;8.70;99.90;;;;;;4969134;28;20509;-52
2023/01/15 02:10:14;;;;;;;0.80;0.80;;;8.70;99.90;;;;;;4971338;28;20533;-52
2023/01/15 02:12:45;;;;;;;0.70;0.70;;;8.70;99.90;;;;;;4977027;28;20500;-52
2023/01/15 02:15:17;;;;;;;0.80;0.80;;;8.80;99.90;;;;;;4970081;28;20853;-52
2023/01/15 02:17:49;;;;;;;0.60;0.60;;;8.70;99.90;;;;;;4971715;28;20523;-52
2023/01/15 02:20:29;;;;;;;0.70;0.70;;;8.70;99.90;;;;;;4968818;28;20492;-53
2023/01/15 02:23:23;;;;;;;1.17;1.17;;;8.70;99.90;;;;;;4976323;28;20467;-53
2023/01/15 02:26:07;;;;;;;2.80;0.70;;;8.80;99.90;;;;;;4969300;28;20489;-52
2023/01/15 02:28:38;;;;;;;0.80;0.70;;;8.80;99.90;;;;;;4974706;28;20484;-52
2023/01/15 02:31:09;;;;;;;0.67;0.67;;;8.80;99.90;;;;;;4974369;28;20599;-52
2023/01/15 02:33:40;;;;;;;0.80;0.80;;;8.70;99.90;;;;;;4973477;28;20956;-52
2023/01/15 02:36:11;;;;;;;0.63;0.63;;;8.70;99.90;;;;;;4975159;28;20534;-51
2023/01/15 02:38:43;;;;;;;0.70;0.70;;;8.60;99.90;;;;;;4974591;28;20488;-53
2023/01/15 02:41:15;;;;;;;0.70;0.70;;;8.70;99.90;;;;;;4975123;28;20488;-52
2023/01/15 02:43:46;;;;;;;0.80;0.77;;;8.60;99.90;;;;;;4973776;28;20840;-52
2023/01/15 02:46:16;;;;;;;0.80;0.80;;;8.70;99.90;;;;;;4973301;28;20523;-53
2023/01/15 02:48:46;;;;;;;0.80;0.77;;;8.70;99.90;;;;;;4966910;28;20821;-52
2023/01/15 02:51:16;;;;;;;2.00;0.80;;;8.60;99.90;;;;;;4974348;28;20552;-52
2023/01/15 02:53:47;;;;;;;0.77;0.77;;;8.60;99.90;;;;;;4973797;28;20496;-53
2023/01/15 02:56:18;;;;;;;0.80;0.73;;;8.60;99.90;;;;;;4974226;28;20492;-52
2023/01/15 02:58:49;;;;;;;3.37;0.90;;;8.60;99.90;;;;;;4970730;28;20544;-53
2023/01/15 03:01:21;;;;;;;1.37;0.70;;;8.60;99.90;;;;;;4967239;28;20468;-51
2023/01/15 03:03:53;;;;;;;0.63;0.63;;;8.50;99.90;;;;;;4975799;28;20555;-52
2023/01/15 03:06:27;;;;;;;0.60;0.50;;;8.60;99.90;;;;;;4972056;28;20499;-52
2023/01/15 03:08:54;;;;;;;1.13;0.77;;;8.60;99.90;;;;;;4973224;28;20508;-52
2023/01/15 03:11:21;;;;;;;0.80;0.80;;;8.60;99.90;;;;;;4974083;28;20452;-51
2023/01/15 03:13:56;;;;;;;0.70;0.70;;;8.60;99.90;;;;;;4973851;28;20531;-54
2023/01/15 03:16:34;;;;;;;0.67;0.67;;;8.50;99.90;;;;;;4973305;28;20486;-52
2023/01/15 03:19:07;;;;;;;0.73;0.70;;;8.50;99.90;;;;;;4975203;28;20543;-52
2023/01/15 03:21:41;;;;;;;0.83;0.77;;;8.50;99.90;;;;;;4972264;28;20951;-51
2023/01/15 03:24:10;;;;;;;3.13;0.60;;;8.60;99.90;;;;;;4974158;28;20486;-52
2023/01/15 03:26:36;;;;;;;1.10;0.73;;;8.60;99.90;;;;;;4970859;28;20926;-52
2023/01/15 03:29:07;;;;;;;0.70;0.70;;;8.60;99.90;;;;;;4970224;28;20951;-52
2023/01/15 03:31:35;;;;;;;0.80;0.77;;;8.60;99.90;;;;;;4972282;28;20526;-52
2023/01/15 03:34:02;;;;;;;1.00;0.90;;;8.50;99.90;;;;;;4963211;28;20463;-51
2023/01/15 03:36:29;;;;;;;1.20;0.80;;;8.60;99.90;;;;;;4967810;28;20998;-52
2023/01/15 03:38:56;;;;;;;1.00;1.00;;;8.60;99.90;;;;;;4968211;28;20547;-52
2023/01/15 03:41:29;;;;;;;7.40;0.70;;;8.60;99.90;;;;;;4966739;28;20488;-51
2023/01/15 03:44:07;;;;;;;0.80;0.70;;;8.60;99.90;;;;;;4977635;28;21296;-52
2023/01/15 03:46:46;;;;;;;0.90;0.77;;;8.60;99.90;;;;;;4971615;28;20531;-52
2023/01/15 03:49:21;;;;;;;2.50;0.67;;;8.40;99.90;;;;;;4976446;28;20464;-51
2023/01/15 03:51:58;;;;;;;1.17;0.80;;;7.90;99.90;;;;;;4974016;28;20539;-52
2023/01/15 03:54:31;;;;;;;0.70;0.70;;;7.70;99.90;;;;;;4970180;28;20472;-53
2023/01/15 03:57:03;;;;;;;1.03;0.60;;;7.50;99.90;;;;;;4972962;28;20508;-52
2023/01/15 03:59:35;;;;;;;0.60;0.50;;;7.40;99.90;;;;;;4965713;28;20901;-52
2023/01/15 04:02:06;;;;;;;1.00;0.53;;;7.30;99.90;;;;;;4971488;28;20519;-52
2023/01/15 04:04:33;;;;;;;1.30;0.67;;;7.20;99.90;;;;;;4972540;28;20496;-51
2023/01/15 04:07:01;;;;;;;0.50;0.50;;;7.10;99.90;;;;;;4969666;28;20582;-52
2023/01/15 04:09:28;;;;;;;0.90;0.67;;;6.90;99.90;;;;;;4971185;28;20989;-51
2023/01/15 04:11:58;;;;;;;1.07;0.60;;;6.80;99.90;;;;;;4972304;28;20497;-52
2023/01/15 04:14:25;;;;;;;0.77;0.57;;;6.70;99.90;;;;;;4971961;28;20464;-52
2023/01/15 04:16:53;;;;;;;4.00;0.50;;;6.50;99.90;;;;;;4973176;28;20529;-52
2023/01/15 04:19:20;;;;;;;0.60;0.60;;;6.40;99.90;;;;;;4964619;28;20461;-52
2023/01/15 04:21:46;;;;;;;0.70;0.57;;;6.30;99.90;;;;;;4971127;28;20492;-52
2023/01/15 04:24:13;;;;;;;1.50;0.60;;;6.10;99.90;;;;;;4962728;28;20514;-53
2023/01/15 04:26:39;;;;;;;1.17;0.60;;;5.90;99.90;;;;;;4972767;28;20624;-53
2023/01/15 04:29:06;;;;;;;1.00;0.77;;;5.80;99.90;;;;;;4962254;28;20469;-54
2023/01/15 04:31:34;;;;;;;0.90;0.70;;;5.70;99.90;;;;;;4966713;28;21847;-52
2023/01/15 04:34:03;;;;;;;0.70;0.60;;;5.70;99.90;;;;;;4967873;28;20976;-53
2023/01/15 04:36:30;;;;;;;2.00;0.80;;;5.60;99.90;;;;;;4971102;28;21068;-53
2023/01/15 04:38:58;;;;;;;1.50;0.60;;;5.60;99.90;;;;;;4972397;28;20504;-51
2023/01/15 04:44:09;;;;;;;0.90;0.90;;;5.50;99.90;;;;;;4972281;28;20463;-51
2023/01/15 04:46:37;;;;;;;1.23;1.03;;;5.50;99.90;;;;;;4973830;28;20588;-52
2023/01/15 04:49:08;;;;;;;1.00;0.50;;;5.50;99.90;;;;;;4967018;28;20874;-51
2023/01/15 04:51:34;;;;;;;1.27;0.60;;;5.50;99.90;;;;;;4972275;28;20452;-51
2023/01/15 04:54:04;;;;;;;1.60;0.57;;;5.40;99.90;;;;;;4971555;28;20500;-52
2023/01/15 04:56:30;;;;;;;2.60;0.90;;;5.40;99.90;;;;;;4970024;28;20480;-54
2023/01/15 04:59:00;;;;;;;1.43;0.60;;;5.30;99.90;;;;;;4966454;28;20508;-51
2023/01/15 05:01:27;;;;;;;1.00;0.70;;;5.30;99.90;;;;;;4971469;28;21009;-52
2023/01/15 05:03:53;;;;;;;0.77;0.77;;;5.30;99.90;;;;;;4965606;28;20525;-53
2023/01/15 05:06:21;;;;;;;0.83;0.83;;;5.30;99.90;;;;;;4969249;28;20518;-53
2023/01/15 05:08:48;;;;;;;1.53;0.70;;;5.30;99.90;;;;;;4971054;28;20488;-53
2023/01/15 05:11:14;;;;;;;0.60;0.60;;;5.30;99.90;;;;;;4970441;28;20559;-52
2023/01/15 05:13:41;;;;;;;1.00;0.90;;;5.30;99.90;;;;;;4971211;28;20500;-52
2023/01/15 05:16:11;;;;;;;1.87;1.00;;;5.30;99.90;;;;;;4972514;28;20559;-52
2023/01/15 05:18:37;;;;;;;0.70;0.70;;;5.20;99.90;;;;;;4971395;28;20547;-52
2023/01/15 05:21:05;;;;;;;3.80;1.20;;;5.20;99.90;;;;;;4965918;28;20496;-53
2023/01/15 05:23:32;;;;;;;0.87;0.50;;;5.30;99.90;;;;;;4970723;28;20497;-52
2023/01/15 05:26:03;;;;;;;3.03;1.93;;;5.20;99.90;;;;;;4971589;28;20523;-53
2023/01/15 05:28:30;;;;;;;3.80;1.23;;;5.30;99.90;;;;;;4964796;28;20474;-52
2023/01/15 05:30:57;;;;;;;2.37;0.97;;;5.30;99.90;;;;;;4969808;28;20511;-52
2023/01/15 05:33:23;;;;;;;0.80;0.80;;;5.20;99.90;;;;;;4971387;28;20565;-53
2023/01/15 05:35:50;;;;;;;1.33;0.73;;;5.20;99.90;;;;;;4970781;28;20555;-53
2023/01/15 05:38:16;;;;;;;1.13;0.80;;;5.20;99.90;;;;;;4970345;28;20503;-53
2023/01/15 05:40:44;;;;;;;1.23;0.90;;;5.20;99.90;;;;;;4964779;28;20491;-53
2023/01/15 05:43:11;;;;;;;1.60;0.80;;;5.20;99.90;;;;;;4971244;28;20558;-52
2023/01/15 05:45:37;;;;;;;0.70;0.70;;;5.20;99.90;;;;;;4968894;28;20512;-51
2023/01/15 05:48:04;;;;;;;2.03;1.00;;;5.20;99.90;;;;;;4972981;28;20526;-53
2023/01/15 05:50:31;;;;;;;1.23;0.97;;;5.20;99.90;;;;;;4964598;28;20465;-52
2023/01/15 05:52:57;;;;;;;0.77;0.77;;;5.20;99.90;;;;;;4963728;28;20497;-52
2023/01/15 05:55:24;;;;;;;1.57;0.70;;;5.20;99.90;;;;;;4969617;28;21002;-52
2023/01/15 05:57:52;;;;;;;3.13;0.90;;;5.20;99.90;;;;;;4965827;28;20505;-52
2023/01/15 06:00:19;;;;;;;0.70;0.67;;;5.20;99.90;;;;;;4964597;28;20898;-52
2023/01/15 06:02:49;;;;;;;3.10;1.10;;;5.20;99.90;;;;;;4969335;28;20484;-53
2023/01/15 06:05:18;;;;;;;1.93;0.83;;;5.20;99.90;;;;;;4968181;28;20462;-53
2023/01/15 06:07:47;;;;;;;0.70;0.60;;;5.20;99.90;;;;;;4969671;28;20515;-53
2023/01/15 06:10:15;;;;;;;1.03;0.60;;;5.10;99.90;;;;;;4966528;28;20958;-51
2023/01/15 06:12:42;;;;;;;2.67;1.40;;;5.20;99.90;;;;;;4973718;28;21040;-52
2023/01/15 06:15:11;;;;;;;0.70;0.60;;;5.20;99.90;;;;;;4966247;28;20458;-52
2023/01/15 06:17:37;;;;;;;0.70;0.70;;;5.10;99.90;;;;;;4969053;28;20543;-52
2023/01/15 06:20:04;;;;;;;1.10;1.00;;;5.20;99.90;;;;;;4972394;28;20508;-52
2023/01/15 06:22:31;;;;;;;0.93;0.93;;;5.10;99.90;;;;;;4974849;28;20519;-52
2023/01/15 06:24:57;;;;;;;0.97;0.97;;;5.10;99.90;;;;;;4974418;28;20499;-53
2023/01/15 06:27:24;;;;;;;1.00;0.90;;;5.10;99.90;;;;;;4973729;28;20528;-52
2023/01/15 06:29:52;;;;;;;2.80;0.70;;;5.10;99.90;;;;;;4973245;28;20526;-53
2023/01/15 06:32:20;;;;;;;1.70;0.80;;;5.10;99.90;;;;;;4968527;28;20472;-51
2023/01/15 06:34:47;;;;;;;0.97;0.73;;;5.10;99.90;;;;;;4972581;28;20472;-51
2023/01/15 06:37:13;;;;;;;1.50;0.90;;;5.10;99.90;;;;;;4974570;28;20496;-52
2023/01/15 06:39:40;;;;;;;2.50;1.00;;;5.20;99.90;;;;;;4967975;28;20905;-50
2023/01/15 06:47:36;;;;;;;1.37;0.93;;;5.10;99.90;;;;;;4963726;28;20500;-50
2023/01/15 06:50:02;;;;;;;2.10;0.87;;;5.10;99.90;;;;;;4964674;28;20469;-51
2023/01/15 06:52:29;;;;;;;1.20;1.00;;;5.10;99.90;;;;;;4964029;28;20468;-50
2023/01/15 06:54:56;;;;;;;0.70;0.70;;;5.10;99.90;;;;;;4970246;28;20513;-52
2023/01/15 06:57:23;;;;;;;1.53;0.70;;;5.10;99.90;;;;;;4968713;28;20485;-52
2023/01/15 06:59:50;;;;;;;0.70;0.70;;;5.10;99.90;;;;;;4971610;28;20536;-51
2023/01/15 07:02:17;;;;;;;0.60;0.60;;;5.10;99.90;;;;;;4972128;28;20547;-51
2023/01/15 07:04:46;;;;;;;1.37;0.70;;;5.10;99.90;;;;;;4975195;28;20496;-50
2023/01/15 07:07:13;;;;;;;3.13;0.93;;;5.10;99.90;;;;;;4973322;28;20492;-51
2023/01/15 07:09:39;;;;;;;1.10;0.80;;;5.10;99.90;;;;;;4964499;28;20465;-52
2023/01/15 07:12:06;;;;;;;2.17;0.70;;;5.10;99.90;;;;;;4971535;28;20497;-50
2023/01/15 07:14:33;;;;;;;0.70;0.70;;;5.10;99.90;;;;;;4972165;28;20500;-51
2023/01/15 07:16:59;;;;;;;0.80;0.80;;;5.10;99.90;;;;;;4972584;28;20534;-51
2023/01/15 07:19:26;;;;;;;0.77;0.77;;;5.10;99.90;;;;;;4959225;28;20519;-51
2023/01/15 07:21:54;;;;;;;1.47;1.10;;;5.10;99.90;;;;;;4972665;28;20895;-50
2023/01/15 07:24:21;;;;;;;1.00;0.80;;;5.00;99.90;;;;;;4970792;28;20498;-51
2023/01/15 07:26:48;;;;;;;1.67;0.83;;;5.10;99.90;;;;;;4963335;28;21011;-50
2023/01/15 07:29:15;;;;;;;0.93;0.93;;;5.00;99.90;;;;;;4970929;28;20500;-51
2023/01/15 07:31:41;;;;;;;0.73;0.67;;;5.00;99.90;;;;;;4975223;28;20637;-51
2023/01/15 07:34:08;;;;;;;1.63;1.00;;;5.10;99.90;;;;;;4972596;28;20541;-52
2023/01/15 07:36:35;;;;;;;1.83;1.00;;;5.00;99.90;;;;;;4971465;28;20524;-51
2023/01/15 07:39:05;;;;;;;0.87;0.80;;;5.00;99.90;;;;;;4966648;28;20652;-51
2023/01/15 07:49:48;;;;;;;1.70;1.23;;;5.10;99.90;;;;;;4967186;28;20523;-50
2023/01/15 07:52:15;;;;;;;0.80;0.80;;;5.10;99.90;;;;;;4968587;28;20471;-51
2023/01/15 07:54:44;;;;;;;1.30;0.93;;;5.10;99.90;;;;;;4959501;28;20465;-51
2023/01/15 07:57:11;;;;;;;2.13;1.10;;;5.20;99.90;;;;;;4960615;28;20607;-52
2023/01/15 07:59:38;;;;;;;1.27;1.17;;;5.20;99.90;;;;;;4970626;28;20520;-50
2023/01/15 08:02:04;;;;;;;1.00;0.90;;;5.20;99.90;;;;;;4967131;28;21065;-52
2023/01/15 08:04:31;;;;;;;1.20;1.10;;;5.20;99.90;;;;;;4971489;28;20497;-51
2023/01/15 08:06:59;;;;;;;1.40;1.17;;;5.20;99.90;;;;;;4959944;28;21027;-52
2023/01/15 08:09:26;;;;;;;1.37;0.97;;;5.20;99.90;;;;;;4967250;28;20484;-51
2023/01/15 08:17:22;;;;;;;1.83;1.40;;;5.30;99.90;;;;;;4974733;28;20497;-52
2023/01/15 08:19:49;;;;;;;2.53;1.03;;;5.30;99.90;;;;;;4970688;28;20473;-51
2023/01/15 08:22:16;;;;;;;1.50;1.10;;;5.30;95.30;;;;;;4970674;28;20484;-51
2023/01/15 08:24:42;;;;;;;2.77;1.30;;;5.30;20.10;;;;;;4973706;28;20452;-51
2023/01/15 08:27:10;;;;;;;0.87;0.87;;;5.30;88.30;;;;;;4973177;28;20492;-51
2023/01/15 08:29:37;;;;;;;5.13;1.70;;;5.30;99.90;;;;;;4969773;28;21044;-51
2023/01/15 08:32:04;;;;;;;1.00;1.00;;;5.30;99.90;;;;;;4971500;28;20465;-51
2023/01/15 08:34:30;;;;;;;1.70;1.07;;;5.30;99.90;;;;;;4971597;28;20488;-51
2023/01/15 08:36:58;;;;;;;1.20;1.10;;;5.30;91.90;;;;;;4972934;28;20507;-51
2023/01/15 08:39:26;;;;;;;0.80;0.80;;;5.40;93.10;;;;;;4960807;28;20967;-52
2023/01/15 08:41:52;;;;;;;0.93;0.93;;;5.40;88.10;;;;;;4967775;28;20469;-52
2023/01/15 08:44:22;;;;;;;0.80;0.77;;;5.40;76.30;;;;;;4971462;28;20997;-52
2023/01/15 08:46:49;;;;;;;1.20;0.80;;;5.40;93.50;;;;;;4970621;28;20489;-52
2023/01/15 08:49:16;;;;;;;1.30;1.00;;;5.40;22.20;;;;;;4972070;28;20469;-51
2023/01/15 08:51:44;;;;;;;1.47;1.37;;;5.50;21.00;;;;;;4964935;28;20481;-51
2023/01/15 08:54:10;;;;;;;1.20;0.90;;;5.50;21.80;;;;;;4972067;28;20951;-52
2023/01/15 08:56:37;;;;;;;3.10;1.20;;;5.50;27.40;;;;;;4972419;28;20492;-51
2023/01/15 08:59:06;;;;;;;1.50;1.40;;;5.50;27.60;;;;;;4968155;28;21224;-51
2023/01/15 09:01:34;;;;;;;1.77;1.10;;;5.50;30.40;;;;;;4970125;28;20527;-51
2023/01/15 09:04:02;;;;;;;1.93;0.90;;;5.50;30.80;;;;;;4970075;28;20468;-51
2023/01/15 09:06:28;;;;;;;1.30;1.00;;;5.60;34.00;;;;;;4964931;28;20470;-52
2023/01/15 09:08:55;;;;;;;0.90;0.90;;;5.60;39.30;;;;;;4969315;28;20497;-51
2023/01/15 09:11:21;;;;;;;1.37;1.27;;;5.60;38.00;;;;;;4967372;28;20488;-52
2023/01/15 09:13:50;;;;;;;3.00;1.00;;;5.60;39.50;;;;;;4967606;28;20516;-52
2023/01/15 09:16:17;;;;;;;1.27;1.17;;;5.60;42.00;;;;;;4971166;28;20503;-51
2023/01/15 09:18:45;;;;;;;1.10;1.00;;;5.60;49.90;;;;;;4976508;28;20464;-52
2023/01/15 09:21:11;;;;;;;1.33;1.17;;;5.60;48.70;;;;;;4971601;28;20467;-52
2023/01/15 09:23:38;;;;;;;2.13;1.87;;;5.70;50.40;;;;;;4961227;28;20499;-52
2023/01/15 09:26:07;;;;;;;1.90;1.67;;;5.70;51.40;;;;;;4966987;28;20516;-52
2023/01/15 09:28:34;;;;;;;2.70;1.43;;;5.70;55.30;;;;;;4962691;28;20493;-52
2023/01/15 09:31:01;;;;;;;1.93;1.20;;;5.80;60.80;;;;;;4967982;28;20523;-52
2023/01/15 09:33:28;;;;;;;3.83;1.43;;;5.80;78.30;;;;;;4963396;28;20529;-52
2023/01/15 09:35:56;;;;;;;2.30;1.60;;;5.80;80.60;;;;;;4962828;28;20504;-52
2023/01/15 09:38:22;;;;;;;1.60;1.50;;;5.90;75.60;;;;;;4967900;28;20570;-52
2023/01/15 09:40:51;;;;;;;1.47;1.20;;;5.90;71.30;;;;;;4961271;28;20493;-51
2023/01/15 09:43:33;;;;;;;1.03;0.93;;;5.90;84.40;;;;;;4969233;28;20881;-52
2023/01/15 09:46:05;;;;;;;2.13;1.00;;;5.90;88.10;;;;;;4967848;28;20496;-51
2023/01/15 09:48:47;;;;;;;1.40;1.00;;;6.00;88.80;;;;;;4971678;28;21178;-51
2023/01/15 09:51:26;;;;;;;1.53;1.13;;;6.00;90.40;;;;;;4969924;28;20663;-52
2023/01/15 09:54:17;;;;;;;2.07;1.87;;;6.10;92.70;;;;;;4966199;28;20465;-52
2023/01/15 09:56:43;;;;;;;1.83;1.27;;;6.10;99.90;;;;;;4968468;28;20492;-52
2023/01/15 09:59:20;;;;;;;1.37;1.20;;;6.20;99.90;;;;;;4967198;28;20563;-52
2023/01/15 10:01:48;;;;;;;1.93;0.93;;;6.20;99.90;;;;;;4955373;28;20464;-52
2023/01/15 10:04:29;;;;;;;1.40;1.20;;;6.30;99.90;;;;;;4970223;28;20500;-52
2023/01/15 10:07:05;;;;;;;1.40;1.30;;;6.40;99.90;;;;;;4966310;28;20527;-51
2023/01/15 10:09:37;;;;;;;2.13;1.00;;;6.40;99.90;;;;;;4972396;28;20941;-52
2023/01/15 10:15:02;;;;;;;1.53;1.00;;;6.50;99.90;;;;;;4972211;28;20452;-52
2023/01/15 10:17:39;;;;;;;1.00;1.00;;;6.60;99.90;;;;;;4969691;28;20860;-52
2023/01/15 10:20:12;;;;;;;1.53;1.13;;;6.60;99.90;;;;;;4975325;28;20542;-52
2023/01/15 10:23:09;;;;;;;1.80;1.10;;;6.60;99.90;;;;;;4970788;28;20581;-52
2023/01/15 10:25:44;;;;;;;1.17;1.07;;;6.60;99.90;;;;;;4967398;28;20503;-51
2023/01/15 10:28:19;;;;;;;1.03;0.80;;;6.60;99.90;;;;;;4967555;28;20610;-51
2023/01/15 10:30:51;;;;;;;1.90;1.20;;;6.60;99.90;;;;;;4970518;28;20468;-52
2023/01/15 10:33:41;;;;;;;0.90;0.90;;;6.80;99.90;;;;;;4962631;28;20488;-52
2023/01/15 10:36:11;;;;;;;2.33;1.20;;;6.70;99.90;;;;;;4950860;28;20551;-51
2023/01/15 10:38:48;;;;;;;1.47;0.90;;;6.70;99.90;;;;;;4964499;28;20479;-51
2023/01/15 10:41:38;;;;;;;1.17;1.07;;;6.70;99.90;;;;;;4966013;28;20464;-52
2023/01/15 10:44:12;;;;;;;1.17;1.07;;;6.70;99.90;;;;;;4967863;28;21046;-51
2023/01/15 10:46:40;;;;;;;3.53;1.10;;;6.70;99.90;;;;;;4962775;28;20566;-52
2023/01/15 10:49:13;;;;;;;0.90;0.90;;;6.70;99.90;;;;;;4966856;28;21000;-52
2023/01/15 10:51:43;;;;;;;0.90;0.90;;;6.70;99.90;;;;;;4961147;28;21344;-51
2023/01/15 10:54:20;;;;;;;0.90;0.90;;;6.70;99.90;;;;;;4965214;28;20472;-51
2023/01/15 10:56:55;;;;;;;1.20;1.10;;;6.80;99.90;;;;;;4963453;28;20542;-51
2023/01/15 10:59:30;;;;;;;1.10;1.10;;;6.80;99.90;;;;;;4963832;28;20464;-51
2023/01/15 11:01:59;;;;;;;1.00;1.00;;;6.80;99.90;;;;;;4961349;28;20491;-52
2023/01/15 11:04:28;;;;;;;1.20;1.10;;;6.80;99.90;;;;;;4958609;28;20533;-51
2023/01/15 11:06:55;;;;;;;1.33;1.10;;;6.80;99.90;;;;;;4960305;28;20525;-51
2023/01/15 11:09:30;;;;;;;0.80;0.80;;;6.80;99.90;;;;;;4968371;28;20535;-52
2023/01/15 11:20:31;;;;;;;1.17;0.93;;;6.80;99.90;;;;;;4963515;28;20535;-51
2023/01/15 11:23:07;;;;;;;1.13;1.03;;;6.80;99.90;;;;;;4965083;28;20476;-52
2023/01/15 11:25:35;;;;;;;2.53;1.33;;;6.80;99.90;;;;;;4959965;28;20507;-52
2023/01/15 11:28:05;;;;;;;1.10;1.10;;;6.80;99.90;;;;;;4961569;28;20519;-51
2023/01/15 11:30:36;;;;;;;1.77;1.10;;;6.80;99.90;;;;;;4965341;28;20492;-51
2023/01/15 11:33:06;;;;;;;3.60;1.03;;;6.90;99.90;;;;;;4961451;28;20468;-51
2023/01/15 11:35:34;;;;;;;3.87;1.07;;;6.80;99.90;;;;;;4958632;28;20485;-52
2023/01/15 11:38:12;;;;;;;1.80;1.20;;;6.80;99.90;;;;;;4952400;28;20671;-52
2023/01/15 11:40:50;;;;;;;0.70;0.70;;;6.80;99.90;;;;;;4963107;28;20537;-51
2023/01/15 11:51:40;;;;;;;4.97;1.60;;;6.80;99.90;;;;;;4958265;28;20457;-52
2023/01/15 11:54:10;;;;;;;2.13;1.20;;;6.90;99.90;;;;;;4955815;28;20465;-52
2023/01/15 11:56:42;;;;;;;3.10;1.50;;;6.90;99.90;;;;;;4964574;28;20618;-52
2023/01/15 11:59:12;;;;;;;4.10;1.33;;;6.90;99.90;;;;;;4970096;28;20566;-51
2023/01/15 12:01:49;;;;;;;2.20;1.00;;;6.90;99.90;;;;;;4967243;28;20464;-50
2023/01/15 12:04:34;;;;;;;1.23;1.13;;;6.90;99.90;;;;;;4961395;28;21120;-52
2023/01/15 12:07:01;;;;;;;7.37;1.87;;;6.90;99.90;;;;;;4960451;28;20519;-51
2023/01/15 12:09:43;;;;;;;2.93;1.70;;;6.80;99.90;;;;;;4959593;28;20576;-52
2023/01/15 12:12:22;;;;;;;1.30;1.20;;;6.90;99.90;;;;;;4960223;28;20490;-52
2023/01/15 12:15:12;;;;;;;1.07;0.97;;;6.90;99.90;;;;;;4967275;28;20464;-51
2023/01/15 12:17:59;;;;;;;2.60;1.00;;;6.90;99.90;;;;;;4963195;28;20987;-52
2023/01/15 12:20:31;;;;;;;3.03;1.67;;;6.90;99.90;;;;;;4962551;28;22524;-51
2023/01/15 12:23:26;;;;;;;1.97;1.27;;;6.90;99.90;;;;;;4962534;28;20477;-51
2023/01/15 12:26:03;;;;;;;3.00;1.83;;;7.00;99.90;;;;;;4969402;28;20556;-50
2023/01/15 12:28:36;;;;;;;3.10;1.10;;;7.00;99.90;;;;;;4967024;28;20858;-51
2023/01/15 12:31:08;;;;;;;5.20;1.40;;;7.10;25.40;;;;;;4961140;28;20540;-51
2023/01/15 12:33:45;;;;;;;1.27;0.77;;;7.40;27.40;;;;;;4966470;28;20511;-51
2023/01/15 12:36:18;;;;;;;6.73;1.03;;;7.50;54.10;;;;;;4957378;28;20937;-51
2023/01/15 12:38:49;;;;;;;4.77;0.90;;;7.40;51.40;;;;;;4962949;28;20473;-51
2023/01/15 12:41:20;;;;;;;1.70;1.20;;;7.40;37.20;;;;;;4971151;23;20906;-53
2023/01/15 12:46:41;;;;;;;1.10;1.07;;;7.30;41.40;;;;;;4955681;28;20452;-52
2023/01/15 12:49:25;;;;;;;2.73;1.20;;;7.30;48.50;;;;;;4953940;28;20518;-55
2023/01/15 12:52:02;;;;;;;3.43;1.60;;;7.20;42.00;;;;;;4950976;28;20479;-53
2023/01/15 12:54:35;;;;;;;3.10;1.63;;;7.20;45.40;;;;;;4941892;28;20572;-54
2023/01/15 12:57:13;;;;;;;3.23;1.67;;;7.10;48.40;;;;;;4942395;28;20501;-54
2023/01/15 12:59:47;;;;;;;3.37;1.30;;;7.10;40.40;;;;;;4945362;28;20560;-54
2023/01/15 13:02:20;;;;;;;1.93;1.20;;;7.10;57.20;;;;;;4946720;28;20507;-54
2023/01/15 13:04:51;;;;;;;12.47;1.30;;;7.10;57.40;;;;;;4941850;28;20560;-54
2023/01/15 13:07:24;;;;;;;1.53;1.40;;;7.20;55.70;;;;;;4941315;28;20647;-54
2023/01/15 13:09:58;;;;;;;4.67;1.10;;;7.30;62.80;;;;;;4943623;28;20585;-52
2023/01/15 13:12:25;;;;;;;2.80;1.50;;;7.60;73.70;;;;;;4946432;28;20514;-54
2023/01/15 13:14:53;;;;;;;2.70;1.30;;;7.90;85.40;;;;;;4945233;28;20911;-54
2023/01/15 13:17:28;;;;;;;1.87;1.37;;;8.10;99.90;;;;;;4944302;28;21045;-53
2023/01/15 13:20:10;;;;;;;4.00;1.20;;;8.20;99.90;;;;;;4944379;28;20500;-54
2023/01/15 13:22:47;;;;;;;3.43;1.80;;;8.30;99.90;;;;;;4943302;28;20497;-54
2023/01/15 13:25:30;;;;;;;1.80;0.80;;;8.70;99.90;;;;;;4946338;28;20516;-54
2023/01/15 13:28:11;;;;;;;3.13;1.27;;;8.20;99.90;;;;;;4943013;28;20943;-54
2023/01/15 13:30:52;;;;;;;4.93;2.07;;;8.10;99.90;;;;;;4946594;28;20540;-54
2023/01/15 13:33:27;;;;;;;2.07;1.50;;;8.30;94.60;;;;;;4938552;28;20474;-55
2023/01/15 13:35:57;;;;;;;1.53;1.43;;;8.60;99.90;;;;;;4944452;28;20500;-55
2023/01/15 13:38:26;;;;;;;2.30;1.30;;;9.00;99.90;;;;;;4946664;28;20952;-54
2023/01/15 13:40:55;;;;;;;4.63;1.30;;;9.30;99.90;;;;;;4947449;28;20528;-54
2023/01/15 13:43:31;;;;;;;3.87;1.30;;;9.30;99.90;;;;;;4945060;28;20489;-53
2023/01/15 13:46:02;;;;;;;3.07;1.60;;;9.70;71.50;;;;;;4943374;28;20472;-59
2023/01/15 13:48:32;;;;;;;1.27;0.90;;;8.90;99.90;;;;;;4943467;28;21085;-59
2023/01/15 13:51:01;;;;;;;2.57;1.40;;;8.70;99.90;;;;;;4941813;28;20525;-58
2023/01/15 13:53:31;;;;;;;1.20;1.10;;;8.50;99.90;;;;;;4945429;28;20461;-59
2023/01/15 13:56:04;;;;;;;2.10;1.30;;;9.50;24.90;;;;;;4941440;28;20473;-58
2023/01/15 13:58:32;;;;;;;1.13;1.00;;;9.70;47.90;;;;;;4940092;28;20496;-59
2023/01/15 14:01:21;;;;;;;1.47;1.03;;;8.40;99.90;;;;;;4946438;28;20535;-58
2023/01/15 14:03:58;;;;;;;3.03;1.10;;;8.70;99.90;;;;;;4949145;28;20493;-59